createdAt,value
2019-02-05T00:01:04.276Z,4.55
2019-02-05T00:03:51.954Z,4.35
2019-02-05T00:06:21.863Z,4.45
2019-02-05T00:08:51.403Z,3.92
2019-02-05T00:11:21.051Z,4.75
2019-02-05T00:13:51.466Z,4.50
2019-02-05T00:16:21.072Z,4.05
2019-02-05T00:18:52.729Z,4.37
2019-02-05T00:21:22.232Z,3.50
2019-02-05T00:23:51.838Z,3.83
2019-02-05T00:26:44.531Z,4.72
2019-02-05T00:29:14.107Z,4.08
2019-02-05T00:31:43.732Z,5.40
2019-02-05T00:34:13.346Z,4.95
2019-02-05T00:36:43.098Z,4.83
2019-02-05T00:39:12.634Z,6.10
2019-02-05T00:41:42.208Z,6.33
2019-02-05T00:44:42.803Z,4.12
2019-02-05T00:47:04.634Z,5.12
2019-02-05T00:49:34.376Z,6.00
2019-02-05T00:52:03.882Z,5.40
2019-02-05T00:54:33.804Z,4.42
2019-02-05T00:57:03.392Z,4.80
2019-02-05T00:59:32.935Z,5.65
2019-02-05T01:02:02.517Z,6.12
2019-02-05T01:04:32.096Z,6.25
2019-02-05T01:07:01.631Z,5.87
2019-02-05T01:09:31.497Z,6.17
2019-02-05T01:12:00.975Z,6.67
2019-02-05T01:14:31.946Z,6.15
2019-02-05T01:17:01.627Z,7.80
2019-02-05T01:19:31.169Z,7.12
2019-02-05T01:22:00.733Z,6.30
2019-02-05T01:24:30.238Z,6.58
2019-02-05T01:26:59.778Z,5.37
2019-02-05T01:29:29.466Z,6.58
2019-02-05T01:31:58.995Z,7.22
2019-02-05T01:34:28.548Z,6.78
2019-02-05T01:36:58.346Z,6.55
2019-02-05T01:39:28.050Z,7.05
2019-02-05T01:41:58.564Z,7.97
2019-02-05T01:44:28.079Z,5.17
2019-02-05T01:46:57.616Z,6.50
2019-02-05T01:49:27.081Z,7.28
2019-02-05T01:51:56.987Z,8.18
2019-02-05T01:54:26.696Z,7.25
2019-02-05T01:56:56.271Z,7.62
2019-02-05T01:59:26.079Z,8.28
2019-02-05T02:01:55.615Z,7.92
2019-02-05T02:04:25.133Z,7.90
2019-02-05T02:06:54.668Z,7.55
2019-02-05T02:09:24.179Z,9.38
2019-02-05T02:11:54.703Z,9.10
2019-02-05T02:14:24.315Z,8.23
2019-02-05T02:16:53.781Z,8.10
2019-02-05T02:19:23.464Z,9.68
2019-02-05T02:21:52.991Z,9.70
2019-02-05T02:24:22.696Z,9.40
2019-02-05T02:26:52.525Z,8.28
2019-02-05T02:29:22.199Z,8.75
2019-02-05T02:31:51.840Z,9.53
2019-02-05T02:34:21.478Z,8.35
2019-02-05T02:36:51.180Z,8.23
2019-02-05T02:39:21.023Z,10.95
2019-02-05T02:41:50.496Z,9.70
2019-02-05T02:44:20.073Z,5.10
2019-02-05T02:46:49.624Z,8.58
2019-02-05T02:49:19.506Z,8.53
2019-02-05T02:51:49.114Z,9.80
2019-02-05T02:54:18.577Z,10.00
2019-02-05T02:56:48.229Z,10.03
2019-02-05T02:59:17.771Z,9.18
2019-02-05T03:01:47.335Z,9.35
2019-02-05T03:04:17.246Z,9.23
2019-02-05T03:06:46.744Z,9.80
2019-02-05T03:09:16.460Z,10.40
2019-02-05T03:11:46.074Z,9.48
2019-02-05T03:14:15.599Z,10.15
2019-02-05T03:16:45.141Z,10.13
2019-02-05T03:19:14.673Z,10.78
2019-02-05T03:21:44.653Z,10.95
2019-02-05T03:24:14.105Z,12.45
2019-02-05T03:26:43.862Z,10.90
2019-02-05T03:29:13.397Z,10.30
2019-02-05T03:31:43.008Z,11.30
2019-02-05T03:34:12.715Z,10.30
2019-02-05T03:36:42.276Z,9.80
2019-02-05T03:39:12.226Z,12.07
2019-02-05T03:41:41.815Z,10.15
2019-02-05T03:44:11.454Z,11.97
2019-02-05T03:46:41.098Z,11.75
2019-02-05T03:49:11.238Z,12.07
2019-02-05T03:51:47.697Z,14.13
2019-02-05T03:54:55.419Z,11.48
2019-02-05T03:58:21.087Z,11.43
2019-02-05T04:01:33.554Z,11.60
2019-02-05T04:04:39.523Z,12.55
2019-02-05T04:07:31.113Z,11.05
2019-02-05T04:10:33.663Z,13.68
2019-02-05T04:13:39.856Z,13.05
2019-02-05T04:16:27.859Z,14.78
2019-02-05T04:19:41.028Z,14.10
2019-02-05T04:22:57.044Z,15.32
2019-02-05T04:26:19.149Z,12.53
2019-02-05T04:29:15.782Z,14.78
2019-02-05T04:32:12.883Z,15.23
2019-02-05T04:35:26.414Z,15.08
2019-02-05T04:38:31.819Z,16.65
2019-02-05T04:41:24.956Z,15.23
2019-02-05T04:45:06.794Z,16.10
2019-02-05T04:48:06.453Z,16.75
2019-02-05T04:51:29.695Z,16.12
2019-02-05T04:54:32.074Z,17.45
2019-02-05T04:57:31.314Z,19.17
2019-02-05T05:00:33.210Z,17.73
2019-02-05T05:03:50.662Z,17.45
2019-02-05T05:06:53.354Z,18.05
2019-02-05T05:09:51.156Z,18.25
2019-02-05T05:12:20.893Z,17.85
2019-02-05T05:14:51.594Z,19.98
2019-02-05T05:17:21.173Z,20.43
2019-02-05T05:19:50.754Z,19.67
2019-02-05T05:22:20.497Z,23.12
2019-02-05T05:24:52.855Z,22.70
2019-02-05T05:27:25.776Z,21.20
2019-02-05T05:29:55.991Z,22.67
2019-02-05T05:32:26.236Z,22.30
2019-02-05T05:34:56.042Z,19.98
2019-02-05T05:37:25.656Z,20.15
2019-02-05T05:39:55.183Z,22.65
2019-02-05T05:42:26.435Z,23.52
2019-02-05T05:44:55.959Z,21.02
2019-02-05T05:47:25.532Z,22.80
2019-02-05T05:49:55.247Z,20.05
2019-02-05T05:52:24.820Z,23.32
2019-02-05T05:54:54.362Z,23.55
2019-02-05T05:57:24.005Z,21.50
2019-02-05T05:59:53.910Z,23.35
2019-02-05T06:02:23.654Z,23.62
2019-02-05T06:04:53.183Z,22.87
2019-02-05T06:07:22.964Z,24.43
2019-02-05T06:09:52.599Z,25.05
2019-02-05T06:12:22.932Z,23.60
2019-02-05T06:14:52.641Z,25.62
2019-02-05T06:17:22.238Z,25.37
2019-02-05T06:19:51.957Z,24.65
2019-02-05T06:22:21.683Z,21.50
2019-02-05T06:24:51.266Z,24.72
2019-02-05T06:27:20.845Z,24.77
2019-02-05T06:29:50.846Z,25.43
2019-02-05T06:32:20.339Z,23.57
2019-02-05T06:34:49.902Z,22.50
2019-02-05T06:37:19.462Z,24.32
2019-02-05T06:39:49.048Z,25.75
2019-02-05T06:42:18.527Z,27.20
2019-02-05T06:44:48.518Z,24.75
2019-02-05T06:47:18.099Z,24.45
2019-02-05T06:49:47.762Z,26.70
2019-02-05T06:52:17.363Z,24.35
2019-02-05T06:54:47.161Z,25.10
2019-02-05T06:57:16.724Z,25.50
2019-02-05T06:59:46.708Z,26.52
2019-02-05T07:02:16.282Z,27.70
2019-02-05T07:04:45.839Z,25.15
2019-02-05T07:07:15.569Z,26.10
2019-02-05T07:09:45.677Z,29.67
2019-02-05T07:12:15.492Z,25.85
2019-02-05T07:14:45.086Z,28.60
2019-02-05T07:17:14.672Z,26.82
2019-02-05T07:19:44.405Z,30.32
2019-02-05T07:22:14.156Z,30.32
2019-02-05T07:24:43.835Z,25.57
2019-02-05T07:27:13.452Z,31.82
2019-02-05T07:29:43.165Z,27.75
2019-02-05T07:32:13.156Z,28.15
2019-02-05T07:34:42.825Z,26.62
2019-02-05T07:37:12.434Z,26.40
2019-02-05T07:39:42.525Z,25.55
2019-02-05T07:42:12.351Z,24.92
2019-02-05T07:44:42.032Z,23.25
2019-02-05T07:47:11.915Z,23.02
2019-02-05T07:49:41.915Z,22.55
2019-02-05T07:52:11.622Z,21.60
2019-02-05T07:54:41.657Z,21.20
2019-02-05T07:57:11.412Z,20.80
2019-02-05T07:59:42.849Z,23.18
2019-02-05T08:02:12.342Z,22.80
2019-02-05T08:04:42.424Z,20.97
2019-02-05T08:07:12.118Z,22.60
2019-02-05T08:09:41.721Z,20.00
2019-02-05T08:12:12.305Z,21.40
2019-02-05T08:14:41.960Z,20.90
2019-02-05T08:17:11.659Z,21.73
2019-02-05T08:19:41.411Z,21.07
2019-02-05T08:22:11.247Z,20.70
2019-02-05T08:24:41.154Z,20.35
2019-02-05T08:27:10.846Z,21.55
2019-02-05T08:29:40.397Z,21.50
2019-02-05T08:32:16.368Z,20.30
2019-02-05T08:34:46.154Z,20.77
2019-02-05T08:37:16.214Z,20.30
2019-02-05T08:39:46.051Z,23.80
2019-02-05T08:42:15.686Z,20.32
2019-02-05T08:44:46.587Z,22.15
2019-02-05T08:47:16.237Z,22.02
2019-02-05T08:49:46.446Z,20.70
2019-02-05T08:52:16.047Z,20.72
2019-02-05T08:54:45.705Z,20.35
2019-02-05T08:57:16.702Z,20.45
2019-02-05T08:59:46.406Z,21.10
2019-02-05T09:02:15.991Z,19.87
2019-02-05T09:04:45.655Z,18.65
2019-02-05T09:07:15.259Z,19.48
2019-02-05T09:09:45.291Z,18.65
2019-02-05T09:12:17.860Z,18.98
2019-02-05T09:14:47.168Z,18.25
2019-02-05T09:17:16.962Z,20.82
2019-02-05T09:19:46.562Z,18.32
2019-02-05T09:22:17.738Z,18.40
2019-02-05T09:24:47.513Z,20.30
2019-02-05T09:27:17.980Z,20.57
2019-02-05T09:29:47.897Z,21.50
2019-02-05T09:32:17.869Z,21.10
2019-02-05T09:34:47.431Z,19.40
2019-02-05T09:37:17.892Z,18.02
2019-02-05T09:39:47.756Z,16.10
2019-02-05T09:42:17.820Z,19.50
2019-02-05T09:44:47.379Z,19.57
2019-02-05T09:47:17.051Z,20.05
2019-02-05T09:49:46.743Z,15.25
2019-02-05T09:52:16.542Z,17.30
2019-02-05T09:54:46.184Z,17.17
2019-02-05T09:57:15.770Z,17.23
2019-02-05T09:59:45.864Z,15.43
2019-02-05T10:02:15.600Z,14.65
2019-02-05T10:04:45.184Z,15.80
2019-02-05T10:07:14.828Z,15.20
2019-02-05T10:09:44.360Z,14.00
2019-02-05T10:12:14.181Z,14.85
2019-02-05T10:14:43.882Z,12.23
2019-02-05T10:17:13.459Z,13.20
2019-02-05T10:19:44.124Z,13.22
2019-02-05T10:22:13.856Z,14.33
2019-02-05T10:24:43.554Z,13.40
2019-02-05T10:27:13.367Z,11.53
2019-02-05T10:29:56.521Z,11.40
2019-02-05T10:32:17.365Z,11.25
2019-02-05T10:34:47.049Z,11.12
2019-02-05T10:37:16.725Z,10.48
2019-02-05T10:39:46.349Z,9.43
2019-02-05T10:42:16.406Z,9.03
2019-02-05T10:44:46.327Z,9.83
2019-02-05T10:47:17.282Z,11.25
2019-02-05T10:49:46.991Z,11.15
2019-02-05T10:52:16.664Z,11.45
2019-02-05T10:54:46.499Z,12.15
2019-02-05T10:57:16.139Z,13.10
2019-02-05T10:59:45.889Z,12.33
2019-02-05T11:02:15.627Z,12.45
2019-02-05T11:04:45.237Z,11.30
2019-02-05T11:07:14.884Z,12.55
2019-02-05T11:09:44.796Z,12.55
2019-02-05T11:12:14.419Z,12.55
2019-02-05T11:14:44.406Z,13.08
2019-02-05T11:17:14.083Z,10.35
2019-02-05T11:19:43.876Z,12.53
2019-02-05T11:22:13.837Z,13.22
2019-02-05T11:24:43.395Z,13.62
2019-02-05T11:27:13.035Z,12.28
2019-02-05T11:29:43.240Z,10.70
2019-02-05T11:32:12.931Z,11.85
2019-02-05T11:34:42.602Z,11.90
2019-02-05T11:37:12.457Z,12.80
2019-02-05T11:39:41.998Z,12.35
2019-02-05T11:42:11.792Z,12.43
2019-02-05T11:44:41.700Z,12.53
2019-02-05T11:47:11.509Z,11.25
2019-02-05T11:49:41.270Z,11.10
2019-02-05T11:52:11.011Z,13.28
2019-02-05T11:54:40.894Z,13.00
2019-02-05T11:57:11.590Z,13.10
2019-02-05T11:59:41.326Z,12.63
2019-02-05T12:02:11.297Z,13.05
2019-02-05T12:04:42.904Z,13.10
2019-02-05T12:07:13.592Z,12.60
2019-02-05T12:09:43.360Z,13.32
2019-02-05T12:12:12.969Z,12.50
2019-02-05T12:14:43.297Z,13.00
2019-02-05T12:17:13.440Z,12.10
2019-02-05T12:19:43.121Z,13.90
2019-02-05T12:22:12.809Z,11.85
2019-02-05T12:24:42.442Z,12.78
2019-02-05T12:27:12.075Z,13.70
2019-02-05T12:29:41.838Z,12.85
2019-02-05T12:32:11.600Z,12.82
2019-02-05T12:34:41.364Z,14.45
2019-02-05T12:37:10.980Z,11.70
2019-02-05T12:39:40.601Z,10.82
2019-02-05T12:42:10.288Z,13.15
2019-02-05T12:44:39.886Z,13.03
2019-02-05T12:47:09.488Z,11.33
2019-02-05T12:49:39.540Z,13.25
2019-02-05T12:52:09.437Z,12.15
2019-02-05T12:54:39.198Z,11.60
2019-02-05T12:57:08.890Z,12.18
2019-02-05T12:59:38.824Z,14.58
2019-02-05T13:02:09.689Z,13.32
2019-02-05T13:04:39.428Z,12.00
2019-02-05T13:07:09.410Z,11.53
2019-02-05T13:09:39.071Z,11.57
2019-02-05T13:12:09.114Z,13.28
2019-02-05T13:14:38.680Z,14.90
2019-02-05T13:17:08.831Z,12.20
2019-02-05T13:19:38.463Z,12.95
2019-02-05T13:22:08.433Z,12.73
2019-02-05T13:24:38.442Z,12.98
2019-02-05T13:27:08.511Z,11.70
2019-02-05T13:29:38.244Z,12.45
2019-02-05T13:32:08.571Z,12.03
2019-02-05T13:34:38.498Z,11.30
2019-02-05T13:37:09.968Z,11.60
2019-02-05T13:39:39.521Z,10.43
2019-02-05T13:42:09.383Z,12.50
2019-02-05T13:44:38.971Z,11.00
2019-02-05T13:47:08.671Z,12.23
2019-02-05T13:49:38.697Z,12.37
2019-02-05T13:52:08.330Z,12.35
2019-02-05T13:54:38.114Z,12.68
2019-02-05T13:57:07.744Z,12.10
2019-02-05T13:59:38.951Z,10.40
2019-02-05T14:02:08.527Z,11.08
2019-02-05T14:04:38.329Z,12.75
2019-02-05T14:07:08.365Z,12.43
2019-02-05T14:09:38.061Z,11.78
2019-02-05T14:12:07.684Z,14.93
2019-02-05T14:14:38.689Z,13.25
2019-02-05T14:17:08.392Z,12.10
2019-02-05T14:19:38.049Z,12.05
2019-02-05T14:22:07.674Z,10.93
2019-02-05T14:24:37.498Z,11.38
2019-02-05T14:27:07.178Z,12.90
2019-02-05T14:29:37.249Z,14.70
2019-02-05T14:32:06.922Z,12.98
2019-02-05T14:34:36.431Z,14.25
2019-02-05T14:37:06.278Z,14.15
2019-02-05T14:39:35.911Z,11.83
2019-02-05T14:42:05.613Z,11.65
2019-02-05T14:44:35.614Z,13.60
2019-02-05T14:47:05.354Z,13.72
2019-02-05T14:49:34.972Z,13.28
2019-02-05T14:52:04.830Z,13.62
2019-02-05T14:54:34.466Z,12.33
2019-02-05T14:57:06.309Z,11.70
2019-02-05T14:59:35.679Z,12.43
2019-02-05T15:02:05.325Z,11.80
2019-02-05T15:04:34.949Z,13.90
2019-02-05T15:07:05.135Z,13.58
2019-02-05T15:09:35.665Z,12.03
2019-02-05T15:12:06.129Z,13.05
2019-02-05T15:14:35.892Z,11.60
2019-02-05T15:17:05.479Z,12.75
2019-02-05T15:19:38.683Z,13.40
2019-02-05T15:22:08.667Z,15.63
2019-02-05T15:24:40.901Z,13.45
2019-02-05T15:27:10.110Z,13.93
2019-02-05T15:29:39.685Z,15.78
2019-02-05T15:32:15.022Z,14.55
2019-02-05T15:34:44.610Z,15.08
2019-02-05T15:37:14.540Z,16.67
2019-02-05T15:39:44.171Z,18.50
2019-02-05T15:42:13.789Z,16.23
2019-02-05T15:44:43.451Z,15.45
2019-02-05T15:47:13.046Z,16.45
2019-02-05T15:49:42.666Z,16.07
2019-02-05T15:52:12.376Z,16.17
2019-02-05T15:54:41.945Z,18.87
2019-02-05T15:57:11.822Z,16.97
2019-02-05T15:59:41.601Z,18.17
2019-02-05T16:02:11.304Z,17.30
2019-02-05T16:04:41.712Z,16.67
2019-02-05T16:07:11.561Z,18.27
2019-02-05T16:09:41.127Z,16.30
2019-02-05T16:12:10.767Z,18.12
2019-02-05T16:14:40.481Z,16.60
2019-02-05T16:17:10.138Z,15.72
2019-02-05T16:19:39.965Z,17.12
2019-02-05T16:22:10.125Z,20.10
2019-02-05T16:24:39.974Z,18.60
2019-02-05T16:27:09.611Z,19.05
2019-02-05T16:29:39.323Z,16.85
2019-02-05T16:32:17.380Z,19.55
2019-02-05T16:34:40.318Z,19.82
2019-02-05T16:37:10.219Z,18.25
2019-02-05T16:39:40.139Z,19.70
2019-02-05T16:42:09.713Z,18.48
2019-02-05T16:44:39.348Z,17.70
2019-02-05T16:47:08.964Z,17.95
2019-02-05T16:49:38.924Z,18.05
2019-02-05T16:52:08.781Z,21.70
2019-02-05T16:54:38.548Z,18.27
2019-02-05T16:57:08.666Z,19.80
2019-02-05T16:59:38.350Z,18.70
2019-02-05T17:02:08.394Z,20.52
2019-02-05T17:04:38.348Z,22.73
2019-02-05T17:07:08.114Z,20.32
2019-02-05T17:09:37.744Z,23.35
2019-02-05T17:12:07.478Z,20.80
2019-02-05T17:14:37.274Z,22.05
2019-02-05T17:17:06.832Z,20.48
2019-02-05T17:19:36.389Z,22.48
2019-02-05T17:22:08.094Z,21.75
2019-02-05T17:24:37.889Z,19.25
2019-02-05T17:27:07.906Z,19.15
2019-02-05T17:29:37.565Z,20.48
2019-02-05T17:32:07.878Z,19.17
2019-02-05T17:34:37.914Z,25.05
2019-02-05T17:37:07.439Z,22.48
2019-02-05T17:39:37.027Z,21.95
2019-02-05T17:42:06.970Z,20.70
2019-02-05T17:44:36.708Z,20.25
2019-02-05T17:47:06.356Z,22.13
2019-02-05T17:49:36.433Z,24.75
2019-02-05T17:52:06.179Z,22.05
2019-02-05T17:54:35.848Z,23.18
2019-02-05T17:57:05.523Z,23.20
2019-02-05T17:59:35.070Z,23.18
2019-02-05T18:02:05.139Z,24.57
2019-02-05T18:04:34.749Z,23.50
2019-02-05T18:07:04.562Z,25.80
2019-02-05T18:09:34.125Z,25.45
2019-02-05T18:12:04.005Z,24.63
2019-02-05T18:14:33.613Z,28.30
2019-02-05T18:17:03.344Z,28.77
2019-02-05T18:19:32.965Z,27.52
2019-02-05T18:22:02.608Z,29.00
2019-02-05T18:24:33.091Z,25.77
2019-02-05T18:27:02.773Z,25.43
2019-02-05T18:29:32.724Z,25.10
2019-02-05T18:32:03.539Z,28.17
2019-02-05T18:34:33.046Z,29.23
2019-02-05T18:37:03.326Z,27.15
2019-02-05T18:39:34.433Z,27.25
2019-02-05T18:42:04.020Z,27.07
2019-02-05T18:44:33.836Z,24.52
2019-02-05T18:47:03.722Z,27.82
2019-02-05T18:49:33.546Z,26.55
2019-02-05T18:52:03.342Z,28.23
2019-02-05T18:54:32.985Z,29.67
2019-02-05T18:57:02.587Z,27.58
2019-02-05T18:59:32.135Z,29.92
2019-02-05T19:02:02.231Z,31.17
2019-02-05T19:04:31.978Z,29.65
2019-02-05T19:07:03.758Z,30.15
2019-02-05T19:09:32.894Z,30.72
2019-02-05T19:12:04.875Z,31.97
2019-02-05T19:14:33.926Z,30.75
2019-02-05T19:17:03.544Z,32.88
2019-02-05T19:19:35.973Z,31.50
2019-02-05T19:22:05.893Z,30.75
2019-02-05T19:24:48.016Z,32.35
2019-02-05T19:27:18.575Z,33.10
2019-02-05T19:29:48.315Z,29.70
2019-02-05T19:32:21.802Z,31.50
2019-02-05T19:34:51.493Z,30.92
2019-02-05T19:37:21.123Z,29.37
2019-02-05T19:39:51.853Z,28.62
2019-02-05T19:42:21.424Z,26.90
2019-02-05T19:44:59.818Z,28.80
2019-02-05T19:47:34.178Z,25.90
2019-02-05T19:50:03.950Z,27.67
2019-02-05T19:52:33.975Z,27.90
2019-02-05T19:55:03.636Z,28.80
2019-02-05T19:57:33.422Z,25.43
2019-02-05T20:00:03.738Z,25.40
2019-02-05T20:02:33.393Z,24.25
2019-02-05T20:05:03.015Z,24.45
2019-02-05T20:07:32.866Z,23.10
2019-02-05T20:10:02.456Z,26.27
2019-02-05T20:12:34.337Z,24.60
2019-02-05T20:15:04.698Z,24.80
2019-02-05T20:17:34.420Z,25.32
2019-02-05T20:20:05.218Z,26.80
2019-02-05T20:22:35.338Z,22.73
2019-02-05T20:25:06.345Z,23.47
2019-02-05T20:27:36.382Z,22.58
2019-02-05T20:30:10.890Z,25.35
2019-02-05T20:32:41.196Z,24.80
2019-02-05T20:35:11.371Z,23.52
2019-02-05T20:37:41.192Z,24.65
2019-02-05T20:40:15.287Z,24.87
2019-02-05T20:42:47.229Z,25.05
2019-02-05T20:45:17.321Z,27.13
2019-02-05T20:47:47.076Z,25.40
2019-02-05T20:50:20.851Z,26.48
2019-02-05T20:52:50.911Z,28.55
2019-02-05T20:55:21.040Z,24.70
2019-02-05T20:57:50.988Z,22.87
2019-02-05T21:00:22.229Z,21.93
2019-02-05T21:02:53.898Z,25.50
2019-02-05T21:05:24.054Z,26.90
2019-02-05T21:07:54.092Z,24.50
2019-02-05T21:10:24.301Z,25.00
2019-02-05T21:12:54.104Z,24.10
2019-02-05T21:15:24.105Z,24.80
2019-02-05T21:17:53.816Z,25.85
2019-02-05T21:20:29.288Z,24.75
2019-02-05T21:22:56.852Z,24.25
2019-02-05T21:25:26.753Z,25.20
2019-02-05T21:27:58.284Z,24.10
2019-02-05T21:30:28.755Z,23.62
2019-02-05T21:32:58.595Z,23.18
2019-02-05T21:35:28.340Z,22.22
2019-02-05T21:37:58.565Z,22.80
2019-02-05T21:40:31.326Z,21.40
2019-02-05T21:42:59.613Z,22.15
2019-02-05T21:45:29.344Z,21.52
2019-02-05T21:47:58.963Z,21.42
2019-02-05T21:50:28.692Z,22.62
2019-02-05T21:52:59.643Z,19.27
2019-02-05T21:55:29.508Z,20.48
2019-02-05T21:57:59.243Z,20.30
2019-02-05T22:00:30.665Z,21.95
2019-02-05T22:03:00.271Z,24.12
2019-02-05T22:05:30.562Z,23.98
2019-02-05T22:08:00.684Z,23.77
2019-02-05T22:10:30.389Z,20.17
2019-02-05T22:13:00.211Z,23.02
2019-02-05T22:15:30.643Z,24.57
2019-02-05T22:18:00.207Z,23.32
2019-02-05T22:20:30.134Z,22.65
2019-02-05T22:22:59.694Z,23.67
2019-02-05T22:25:29.927Z,24.75
2019-02-05T22:28:01.373Z,22.52
2019-02-05T22:30:32.713Z,23.90
2019-02-05T22:33:02.383Z,24.27
2019-02-05T22:35:31.923Z,22.90
2019-02-05T22:38:01.480Z,24.50
2019-02-05T22:40:31.489Z,22.35
2019-02-05T22:43:01.454Z,23.73
2019-02-05T22:45:31.562Z,22.07
2019-02-05T22:48:01.538Z,24.00
2019-02-05T22:50:32.951Z,23.83
2019-02-05T22:53:02.917Z,23.75
2019-02-05T22:55:32.639Z,24.18
2019-02-05T22:58:02.215Z,22.13
2019-02-05T23:00:58.635Z,20.90
2019-02-05T23:03:34.766Z,21.65
2019-02-05T23:06:41.414Z,20.57
2019-02-05T23:09:27.410Z,19.32
2019-02-05T23:12:24.541Z,20.25
2019-02-05T23:15:09.585Z,19.75
2019-02-05T23:17:39.135Z,20.10
2019-02-05T23:20:13.711Z,19.95
2019-02-05T23:22:43.430Z,20.88
2019-02-05T23:25:12.994Z,19.20
2019-02-05T23:27:43.265Z,19.50
2019-02-05T23:30:16.577Z,19.30
2019-02-05T23:32:46.460Z,18.90
2019-02-05T23:35:15.901Z,19.32
2019-02-05T23:37:45.832Z,19.77
2019-02-05T23:40:15.672Z,20.12
2019-02-05T23:42:46.099Z,19.52
2019-02-05T23:45:16.860Z,18.00
2019-02-05T23:47:46.741Z,18.27
2019-02-05T23:50:16.946Z,17.87
2019-02-05T23:52:47.063Z,17.42
2019-02-05T23:55:16.865Z,18.27
2019-02-05T23:57:46.367Z,19.00
